createdAt,value
2023-05-20T00:00:05.580Z,30.47
2023-05-20T00:01:05.646Z,30.55
2023-05-20T00:02:05.722Z,30.51
2023-05-20T00:03:05.869Z,30.53
2023-05-20T00:04:06.075Z,30.50
2023-05-20T00:05:05.921Z,30.53
2023-05-20T00:06:05.962Z,30.51
2023-05-20T00:07:06.021Z,30.50
2023-05-20T00:08:06.095Z,30.51
2023-05-20T00:09:06.087Z,30.56
2023-05-20T00:10:06.107Z,30.53
2023-05-20T00:11:06.114Z,30.50
2023-05-20T00:12:06.109Z,30.53
2023-05-20T00:13:06.114Z,30.54
2023-05-20T00:14:06.127Z,30.51
2023-05-20T00:15:06.131Z,30.51
2023-05-20T00:16:06.170Z,30.54
2023-05-20T00:17:06.150Z,30.57
2023-05-20T00:18:06.232Z,30.51
2023-05-20T00:19:06.201Z,30.55
2023-05-20T00:20:06.185Z,30.53
2023-05-20T00:21:06.189Z,30.51
2023-05-20T00:22:06.197Z,30.54
2023-05-20T00:23:06.212Z,30.57
2023-05-20T00:24:06.214Z,30.55
2023-05-20T00:25:06.229Z,30.55
2023-05-20T00:26:06.225Z,30.58
2023-05-20T00:27:06.236Z,30.54
2023-05-20T00:28:06.269Z,30.55
2023-05-20T00:29:06.335Z,30.55
2023-05-20T00:30:06.393Z,30.55
2023-05-20T00:31:06.450Z,30.54
2023-05-20T00:32:06.518Z,30.59
2023-05-20T00:33:06.691Z,30.55
2023-05-20T00:34:06.653Z,30.57
2023-05-20T00:35:06.725Z,30.57
2023-05-20T00:36:06.795Z,30.57
2023-05-20T00:37:06.869Z,30.57
2023-05-20T00:38:06.936Z,30.60
2023-05-20T00:39:07.028Z,30.52
2023-05-20T00:40:07.082Z,30.55
2023-05-20T00:41:07.152Z,30.54
2023-05-20T00:42:07.218Z,30.58
2023-05-20T00:43:07.303Z,30.58
2023-05-20T00:44:07.360Z,30.58
2023-05-20T00:45:07.456Z,30.58
2023-05-20T00:46:07.570Z,30.59
2023-05-20T00:47:07.580Z,30.55
2023-05-20T00:48:07.730Z,30.57
2023-05-20T00:49:07.729Z,30.58
2023-05-20T00:50:07.802Z,30.58
2023-05-20T00:51:07.858Z,30.59
2023-05-20T00:52:07.941Z,30.61
2023-05-20T00:53:08.019Z,30.62
2023-05-20T00:54:08.092Z,30.56
2023-05-20T00:55:08.168Z,30.56
2023-05-20T00:56:08.202Z,30.59
2023-05-20T00:57:08.289Z,30.62
2023-05-20T00:58:08.366Z,30.61
2023-05-20T00:59:08.420Z,30.61
2023-05-20T01:00:08.519Z,30.61
2023-05-20T01:01:08.573Z,30.61
2023-05-20T01:02:08.638Z,30.62
2023-05-20T01:03:08.796Z,30.64
2023-05-20T01:04:08.761Z,30.63
2023-05-20T01:05:08.827Z,30.58
2023-05-20T01:06:08.891Z,30.56
2023-05-20T01:07:08.974Z,30.59
2023-05-20T01:08:09.026Z,30.59
2023-05-20T01:09:09.094Z,30.58
2023-05-20T01:10:09.171Z,30.61
2023-05-20T01:11:09.237Z,30.62
2023-05-20T01:12:09.312Z,30.59
2023-05-20T01:13:09.392Z,30.62
2023-05-20T01:14:09.449Z,30.65
2023-05-20T01:15:09.529Z,30.61
2023-05-20T01:16:09.569Z,30.61
2023-05-20T01:17:09.565Z,30.65
2023-05-20T01:18:09.573Z,30.64
2023-05-20T01:19:09.700Z,30.59
2023-05-20T01:20:09.583Z,30.59
2023-05-20T01:21:09.596Z,30.65
2023-05-20T01:22:09.603Z,30.63
2023-05-20T01:23:09.595Z,30.66
2023-05-20T01:24:09.605Z,30.63
2023-05-20T01:25:09.700Z,30.65
2023-05-20T01:26:09.770Z,30.66
2023-05-20T01:27:09.838Z,30.65
2023-05-20T01:28:09.911Z,30.62
2023-05-20T01:29:09.983Z,30.66
2023-05-20T01:30:10.050Z,30.66
2023-05-20T01:31:10.171Z,30.65
2023-05-20T01:32:10.134Z,30.61
2023-05-20T01:33:10.226Z,30.65
2023-05-20T01:34:10.153Z,30.66
2023-05-20T01:35:10.160Z,30.65
2023-05-20T01:36:10.161Z,30.60
2023-05-20T01:37:10.172Z,30.66
2023-05-20T01:38:10.196Z,30.63
2023-05-20T01:39:10.195Z,30.70
2023-05-20T01:40:10.210Z,30.66
2023-05-20T01:41:10.232Z,30.63
2023-05-20T01:42:10.231Z,30.62
2023-05-20T01:43:10.237Z,30.63
2023-05-20T01:44:10.245Z,30.65
2023-05-20T01:45:10.245Z,30.68
2023-05-20T01:46:10.266Z,30.63
2023-05-20T01:47:10.254Z,30.62
2023-05-20T01:48:10.366Z,30.66
2023-05-20T01:49:10.354Z,30.64
2023-05-20T01:50:10.426Z,30.65
2023-05-20T01:51:10.501Z,30.66
2023-05-20T01:52:10.539Z,30.70
2023-05-20T01:53:10.608Z,30.68
2023-05-20T01:54:10.637Z,30.63
2023-05-20T01:55:10.703Z,30.65
2023-05-20T01:56:10.773Z,30.67
2023-05-20T01:57:10.848Z,30.66
2023-05-20T01:58:10.925Z,30.63
2023-05-20T01:59:10.998Z,30.67
2023-05-20T02:00:11.066Z,30.66
2023-05-20T02:01:11.148Z,30.67
2023-05-20T02:02:11.267Z,30.66
2023-05-20T02:03:11.331Z,30.67
2023-05-20T02:04:11.287Z,30.66
2023-05-20T02:05:11.354Z,30.67
2023-05-20T02:06:11.454Z,30.69
2023-05-20T02:07:11.510Z,30.63
2023-05-20T02:08:11.582Z,30.63
2023-05-20T02:09:11.672Z,30.69
2023-05-20T02:10:11.762Z,30.66
2023-05-20T02:11:11.824Z,30.69
2023-05-20T02:12:11.896Z,30.67
2023-05-20T02:13:11.992Z,30.69
2023-05-20T02:14:12.073Z,30.67
2023-05-20T02:15:12.147Z,30.69
2023-05-20T02:16:12.226Z,30.66
2023-05-20T02:17:12.284Z,30.67
2023-05-20T02:18:12.449Z,30.67
2023-05-20T02:19:12.492Z,30.68
2023-05-20T02:20:12.494Z,30.66
2023-05-20T02:21:12.579Z,30.67
2023-05-20T02:22:12.630Z,30.64
2023-05-20T02:23:12.718Z,30.70
2023-05-20T02:24:12.773Z,30.63
2023-05-20T02:25:12.842Z,30.67
2023-05-20T02:26:12.888Z,30.69
2023-05-20T02:27:13.066Z,30.67
2023-05-20T02:28:13.028Z,30.69
2023-05-20T02:29:13.121Z,30.67
2023-05-20T02:30:13.163Z,30.66
2023-05-20T02:31:13.174Z,30.67
2023-05-20T02:32:13.173Z,30.66
2023-05-20T02:33:13.215Z,30.68
2023-05-20T02:34:13.224Z,30.69
2023-05-20T02:35:13.186Z,30.69
2023-05-20T02:36:13.195Z,30.70
2023-05-20T02:37:13.206Z,30.70
2023-05-20T02:38:13.219Z,30.66
2023-05-20T02:39:13.211Z,30.73
2023-05-20T02:40:13.258Z,30.63
2023-05-20T02:41:13.336Z,30.72
2023-05-20T02:42:13.424Z,30.69
2023-05-20T02:43:13.522Z,30.67
2023-05-20T02:44:13.570Z,30.65
2023-05-20T02:45:13.647Z,30.67
2023-05-20T02:46:13.734Z,30.66
2023-05-20T02:47:13.784Z,30.66
2023-05-20T02:48:13.837Z,30.67
2023-05-20T02:49:13.874Z,30.73
2023-05-20T02:50:13.925Z,30.70
2023-05-20T02:51:13.990Z,30.71
2023-05-20T02:52:14.075Z,30.73
2023-05-20T02:53:14.166Z,30.67
2023-05-20T02:54:14.222Z,30.67
2023-05-20T02:55:14.257Z,30.68
2023-05-20T02:56:14.326Z,30.71
2023-05-20T02:57:14.397Z,30.70
2023-05-20T02:58:14.446Z,30.71
2023-05-20T02:59:14.484Z,30.71
2023-05-20T03:00:14.555Z,30.70
2023-05-20T03:01:14.687Z,30.71
2023-05-20T03:02:14.690Z,30.68
2023-05-20T03:03:14.758Z,30.54
2023-05-20T03:04:14.819Z,30.23
2023-05-20T03:05:14.785Z,30.13
2023-05-20T03:06:14.783Z,30.06
2023-05-20T03:07:14.791Z,30.04
2023-05-20T03:08:14.800Z,30.02
2023-05-20T03:09:14.808Z,30.01
2023-05-20T03:10:14.835Z,29.95
2023-05-20T03:11:14.839Z,29.93
2023-05-20T03:12:14.826Z,29.87
2023-05-20T03:13:14.841Z,29.91
2023-05-20T03:14:14.847Z,29.91
2023-05-20T03:15:14.851Z,29.82
2023-05-20T03:16:14.936Z,29.86
2023-05-20T03:17:14.890Z,29.79
2023-05-20T03:18:14.895Z,29.83
2023-05-20T03:19:14.934Z,29.84
2023-05-20T03:20:14.927Z,29.81
2023-05-20T03:21:14.981Z,29.74
2023-05-20T03:22:15.074Z,29.79
2023-05-20T03:23:15.204Z,29.79
2023-05-20T03:24:15.130Z,29.77
2023-05-20T03:25:15.219Z,29.80
2023-05-20T03:26:15.227Z,29.69
2023-05-20T03:27:15.227Z,29.71
2023-05-20T03:28:15.225Z,29.73
2023-05-20T03:29:15.291Z,29.81
2023-05-20T03:30:15.285Z,29.75
2023-05-20T03:31:15.303Z,29.82
2023-05-20T03:32:15.235Z,29.81
2023-05-20T03:33:15.274Z,29.85
2023-05-20T03:34:15.339Z,29.89
2023-05-20T03:35:15.389Z,29.91
2023-05-20T03:36:15.382Z,29.89
2023-05-20T03:37:15.418Z,29.89
2023-05-20T03:38:15.511Z,29.94
2023-05-20T03:39:15.450Z,29.88
2023-05-20T03:40:15.454Z,29.96
2023-05-20T03:41:15.462Z,30.00
2023-05-20T03:42:15.510Z,29.96
2023-05-20T03:43:15.496Z,29.99
2023-05-20T03:44:15.524Z,29.96
2023-05-20T03:45:15.524Z,29.92
2023-05-20T03:46:15.594Z,30.01
2023-05-20T03:47:15.565Z,30.04
2023-05-20T03:48:15.604Z,30.04
2023-05-20T03:49:15.590Z,29.99
2023-05-20T03:50:15.673Z,30.06
2023-05-20T03:51:15.615Z,30.01
2023-05-20T03:52:15.627Z,30.03
2023-05-20T03:53:15.703Z,29.97
2023-05-20T03:54:15.705Z,29.99
2023-05-20T03:55:15.752Z,30.00
2023-05-20T03:56:15.757Z,30.02
2023-05-20T03:57:15.806Z,30.00
2023-05-20T03:58:15.838Z,29.93
2023-05-20T03:59:15.892Z,29.96
2023-05-20T04:00:15.919Z,29.99
2023-05-20T04:01:15.947Z,29.94
2023-05-20T04:02:16.060Z,29.93
2023-05-20T04:03:16.103Z,29.87
2023-05-20T04:04:16.075Z,29.84
2023-05-20T04:05:16.080Z,29.88
2023-05-20T04:06:16.095Z,29.94
2023-05-20T04:07:16.116Z,29.88
2023-05-20T04:08:16.157Z,29.88
2023-05-20T04:09:16.180Z,29.94
2023-05-20T04:10:16.216Z,29.95
2023-05-20T04:11:16.252Z,30.04
2023-05-20T04:12:16.270Z,30.13
2023-05-20T04:13:16.299Z,30.12
2023-05-20T04:14:16.297Z,30.05
2023-05-20T04:15:16.311Z,30.02
2023-05-20T04:16:16.355Z,30.09
2023-05-20T04:17:16.346Z,30.11
2023-05-20T04:18:16.439Z,30.09
2023-05-20T04:19:16.392Z,30.12
2023-05-20T04:20:16.397Z,30.12
2023-05-20T04:21:16.389Z,30.09
2023-05-20T04:22:16.410Z,30.08
2023-05-20T04:23:16.420Z,30.16
2023-05-20T04:24:16.427Z,30.10
2023-05-20T04:25:16.469Z,30.10
2023-05-20T04:26:16.476Z,30.09
2023-05-20T04:27:16.485Z,30.04
2023-05-20T04:28:16.533Z,29.95
2023-05-20T04:29:16.506Z,30.03
2023-05-20T04:30:16.523Z,30.02
2023-05-20T04:31:16.622Z,29.97
2023-05-20T04:32:16.595Z,29.99
2023-05-20T04:33:16.595Z,30.03
2023-05-20T04:34:16.601Z,30.12
2023-05-20T04:35:16.629Z,30.12
2023-05-20T04:36:16.778Z,30.13
2023-05-20T04:37:16.664Z,30.14
2023-05-20T04:38:16.716Z,30.13
2023-05-20T04:39:16.773Z,30.17
2023-05-20T04:40:16.805Z,30.20
2023-05-20T04:41:16.855Z,30.17
2023-05-20T04:42:16.899Z,30.23
2023-05-20T04:43:16.960Z,30.23
2023-05-20T04:44:16.994Z,30.17
2023-05-20T04:45:17.065Z,30.20
2023-05-20T04:46:17.111Z,30.28
2023-05-20T04:47:17.139Z,30.27
2023-05-20T04:48:17.201Z,30.21
2023-05-20T04:49:17.257Z,30.19
2023-05-20T04:50:17.278Z,30.25
2023-05-20T04:51:17.340Z,30.08
2023-05-20T04:52:17.387Z,30.18
2023-05-20T04:53:17.453Z,30.18
2023-05-20T04:54:17.476Z,30.18
2023-05-20T04:55:17.516Z,30.08
2023-05-20T04:56:17.556Z,30.13
2023-05-20T04:57:17.583Z,30.09
2023-05-20T04:58:17.638Z,30.12
2023-05-20T04:59:17.659Z,30.15
2023-05-20T05:00:17.697Z,30.12
2023-05-20T05:01:17.771Z,30.14
2023-05-20T05:02:17.790Z,30.19
2023-05-20T05:03:17.837Z,30.18
2023-05-20T05:04:17.886Z,30.18
2023-05-20T05:05:17.934Z,30.22
2023-05-20T05:06:17.978Z,30.18
2023-05-20T05:07:18.013Z,30.19
2023-05-20T05:08:18.060Z,30.15
2023-05-20T05:09:18.106Z,30.11
2023-05-20T05:10:18.140Z,30.12
2023-05-20T05:11:18.192Z,30.22
2023-05-20T05:12:18.233Z,30.11
2023-05-20T05:13:18.283Z,30.18
2023-05-20T05:14:18.319Z,30.18
2023-05-20T05:15:18.368Z,30.16
2023-05-20T05:16:18.443Z,30.22
2023-05-20T05:17:18.467Z,30.15
2023-05-20T05:18:18.516Z,30.08
2023-05-20T05:19:18.594Z,30.16
2023-05-20T05:20:18.581Z,30.09
2023-05-20T05:21:18.620Z,30.03
2023-05-20T05:22:18.636Z,30.03
2023-05-20T05:23:18.655Z,30.03
2023-05-20T05:24:18.675Z,30.08
2023-05-20T05:25:18.698Z,30.08
2023-05-20T05:26:18.717Z,30.10
2023-05-20T05:27:18.717Z,30.09
2023-05-20T05:28:18.737Z,30.18
2023-05-20T05:29:18.751Z,30.10
2023-05-20T05:30:18.768Z,30.18
2023-05-20T05:31:18.774Z,30.10
2023-05-20T05:32:18.880Z,30.10
2023-05-20T05:33:18.883Z,30.09
2023-05-20T05:34:18.820Z,30.10
2023-05-20T05:35:18.833Z,30.02
2023-05-20T05:36:18.850Z,30.02
2023-05-20T05:37:18.862Z,30.03
2023-05-20T05:38:18.883Z,30.06
2023-05-20T05:39:18.903Z,30.04
2023-05-20T05:40:18.910Z,30.10
2023-05-20T05:41:18.922Z,30.04
2023-05-20T05:42:18.958Z,30.07
2023-05-20T05:43:18.947Z,29.99
2023-05-20T05:44:18.967Z,30.06
2023-05-20T05:45:18.975Z,30.08
2023-05-20T05:46:19.034Z,30.04
2023-05-20T05:47:19.001Z,30.06
2023-05-20T05:48:19.038Z,30.09
2023-05-20T05:49:19.021Z,30.01
2023-05-20T05:50:19.038Z,30.10
2023-05-20T05:51:19.058Z,30.10
2023-05-20T05:52:19.074Z,30.04
2023-05-20T05:53:19.145Z,30.07
2023-05-20T05:54:19.171Z,30.10
2023-05-20T05:55:19.226Z,30.08
2023-05-20T05:56:19.266Z,30.04
2023-05-20T05:57:19.313Z,30.03
2023-05-20T05:58:19.370Z,30.10
2023-05-20T05:59:19.416Z,30.18
2023-05-20T06:00:19.467Z,30.07
2023-05-20T06:01:19.610Z,30.08
2023-05-20T06:02:19.606Z,30.11
2023-05-20T06:03:19.683Z,30.08
2023-05-20T06:04:19.672Z,30.10
2023-05-20T06:05:19.690Z,30.17
2023-05-20T06:06:19.853Z,30.15
2023-05-20T06:07:19.790Z,30.10
2023-05-20T06:08:19.845Z,30.08
2023-05-20T06:09:19.891Z,30.15
2023-05-20T06:10:19.958Z,30.13
2023-05-20T06:11:19.999Z,30.13
2023-05-20T06:12:20.024Z,30.13
2023-05-20T06:13:20.039Z,30.14
2023-05-20T06:14:20.052Z,30.20
2023-05-20T06:15:20.062Z,30.13
2023-05-20T06:16:20.098Z,30.10
2023-05-20T06:17:20.092Z,30.08
2023-05-20T06:18:20.123Z,30.10
2023-05-20T06:19:20.213Z,30.04
2023-05-20T06:20:20.156Z,30.12
2023-05-20T06:21:20.167Z,30.11
2023-05-20T06:22:20.185Z,30.12
2023-05-20T06:23:20.227Z,30.12
2023-05-20T06:24:21.028Z,30.11
2023-05-20T06:25:20.258Z,30.11
2023-05-20T06:26:20.284Z,30.10
2023-05-20T06:27:20.292Z,30.07
2023-05-20T06:28:20.309Z,30.11
2023-05-20T06:29:20.344Z,30.15
2023-05-20T06:30:20.398Z,30.11
2023-05-20T06:31:20.486Z,30.07
2023-05-20T06:32:20.496Z,30.07
2023-05-20T06:33:20.555Z,30.04
2023-05-20T06:34:20.588Z,30.02
2023-05-20T06:35:20.634Z,30.02
2023-05-20T06:36:20.687Z,30.04
2023-05-20T06:37:20.729Z,30.02
2023-05-20T06:38:20.810Z,29.98
2023-05-20T06:39:20.825Z,29.99
2023-05-20T06:40:20.864Z,30.00
2023-05-20T06:41:20.897Z,30.01
2023-05-20T06:42:20.964Z,30.01
2023-05-20T06:43:21.007Z,29.99
2023-05-20T06:44:21.041Z,30.00
2023-05-20T06:45:21.081Z,29.99
2023-05-20T06:46:21.175Z,29.97
2023-05-20T06:47:21.223Z,30.04
2023-05-20T06:48:21.216Z,29.99
2023-05-20T06:49:21.256Z,30.01
2023-05-20T06:50:21.297Z,29.97
2023-05-20T06:51:21.352Z,29.97
2023-05-20T06:52:21.402Z,30.01
2023-05-20T06:53:21.450Z,29.97
2023-05-20T06:54:21.488Z,29.92
2023-05-20T06:55:21.527Z,29.93
2023-05-20T06:56:21.606Z,29.96
2023-05-20T06:57:21.609Z,29.90
2023-05-20T06:58:21.678Z,29.96
2023-05-20T06:59:21.704Z,29.96
2023-05-20T07:00:21.762Z,29.92
2023-05-20T07:01:21.866Z,29.89
2023-05-20T07:02:21.898Z,29.92
2023-05-20T07:03:21.937Z,29.85
2023-05-20T07:04:21.961Z,29.88
2023-05-20T07:05:21.962Z,29.87
2023-05-20T07:06:22.015Z,29.87
2023-05-20T07:07:22.062Z,29.91
2023-05-20T07:08:22.101Z,29.89
2023-05-20T07:09:22.143Z,29.89
2023-05-20T07:10:22.174Z,29.87
2023-05-20T07:11:22.214Z,29.88
2023-05-20T07:12:22.246Z,29.85
2023-05-20T07:13:22.280Z,29.84
2023-05-20T07:14:22.314Z,29.88
2023-05-20T07:15:22.342Z,29.87
2023-05-20T07:16:22.387Z,29.86
2023-05-20T07:17:22.436Z,29.82
2023-05-20T07:18:22.445Z,29.85
2023-05-20T07:19:22.511Z,29.90
2023-05-20T07:20:22.512Z,29.89
2023-05-20T07:21:22.542Z,29.86
2023-05-20T07:22:22.593Z,29.87
2023-05-20T07:23:22.636Z,29.80
2023-05-20T07:24:22.666Z,29.83
2023-05-20T07:25:22.673Z,29.86
2023-05-20T07:26:22.713Z,29.87
2023-05-20T07:27:22.735Z,29.83
2023-05-20T07:28:22.827Z,29.89
2023-05-20T07:29:22.810Z,29.88
2023-05-20T07:30:22.840Z,29.86
2023-05-20T07:31:22.896Z,29.90
2023-05-20T07:32:22.953Z,29.88
2023-05-20T07:33:22.947Z,29.89
2023-05-20T07:34:22.959Z,29.86
2023-05-20T07:35:22.977Z,29.85
2023-05-20T07:36:22.979Z,29.83
2023-05-20T07:37:22.991Z,29.88
2023-05-20T07:38:23.002Z,29.79
2023-05-20T07:39:23.026Z,29.80
2023-05-20T07:40:23.046Z,29.82
2023-05-20T07:41:23.017Z,29.75
2023-05-20T07:42:23.091Z,29.78
2023-05-20T07:43:23.031Z,29.70
2023-05-20T07:44:23.047Z,29.70
2023-05-20T07:45:23.071Z,29.68
2023-05-20T07:46:23.133Z,29.73
2023-05-20T07:47:23.089Z,29.67
2023-05-20T07:48:23.146Z,29.70
2023-05-20T07:49:23.118Z,29.64
2023-05-20T07:50:23.166Z,29.66
2023-05-20T07:51:23.127Z,29.67
2023-05-20T07:52:23.145Z,29.63
2023-05-20T07:53:23.167Z,29.66
2023-05-20T07:54:23.168Z,29.62
2023-05-20T07:55:23.197Z,29.58
2023-05-20T07:56:23.204Z,29.58
2023-05-20T07:57:23.207Z,29.51
2023-05-20T07:58:23.222Z,29.50
2023-05-20T07:59:23.222Z,29.47
2023-05-20T08:00:23.326Z,29.45
2023-05-20T08:01:23.323Z,29.40
2023-05-20T08:02:23.404Z,29.36
2023-05-20T08:03:23.501Z,29.33
2023-05-20T08:04:23.615Z,29.30
2023-05-20T08:05:23.576Z,29.26
2023-05-20T08:06:23.629Z,29.26
2023-05-20T08:07:23.678Z,29.26
2023-05-20T08:08:23.757Z,29.27
2023-05-20T08:09:23.742Z,29.28
2023-05-20T08:10:23.771Z,29.26
2023-05-20T08:11:23.754Z,29.21
2023-05-20T08:12:23.791Z,29.15
2023-05-20T08:13:23.790Z,29.19
2023-05-20T08:14:23.796Z,29.25
2023-05-20T08:15:23.808Z,29.23
2023-05-20T08:16:23.835Z,29.17
2023-05-20T08:17:23.887Z,29.22
2023-05-20T08:18:23.940Z,29.17
2023-05-20T08:19:24.030Z,29.17
2023-05-20T08:20:24.101Z,29.18
2023-05-20T08:21:24.141Z,29.21
2023-05-20T08:22:24.234Z,29.15
2023-05-20T08:23:24.286Z,29.22
2023-05-20T08:24:24.349Z,29.18
2023-05-20T08:25:24.424Z,29.15
2023-05-20T08:26:24.507Z,29.18
2023-05-20T08:27:24.592Z,29.16
2023-05-20T08:28:24.673Z,29.16
2023-05-20T08:29:24.748Z,29.21
2023-05-20T08:30:24.855Z,29.24
2023-05-20T08:31:24.996Z,29.19
2023-05-20T08:32:25.022Z,29.17
2023-05-20T08:33:25.058Z,29.11
2023-05-20T08:34:25.144Z,29.15
2023-05-20T08:35:25.214Z,29.11
2023-05-20T08:36:25.288Z,29.09
2023-05-20T08:37:25.359Z,29.16
2023-05-20T08:38:25.437Z,29.19
2023-05-20T08:39:25.516Z,29.15
2023-05-20T08:40:25.597Z,29.21
2023-05-20T08:41:25.671Z,29.23
2023-05-20T08:42:25.756Z,29.22
2023-05-20T08:43:25.821Z,29.24
2023-05-20T08:44:25.911Z,29.22
2023-05-20T08:45:26.014Z,29.21
2023-05-20T08:46:26.113Z,29.31
2023-05-20T08:47:26.161Z,29.31
2023-05-20T08:48:26.244Z,29.32
2023-05-20T08:49:26.287Z,29.28
2023-05-20T08:50:26.377Z,29.34
2023-05-20T08:51:26.367Z,29.34
2023-05-20T08:52:26.406Z,29.26
2023-05-20T08:53:26.414Z,29.35
2023-05-20T08:54:26.409Z,29.30
2023-05-20T08:55:26.425Z,29.29
2023-05-20T08:56:27.680Z,29.31
2023-05-20T08:57:26.454Z,29.37
2023-05-20T08:58:26.465Z,29.32
2023-05-20T08:59:26.500Z,29.35
2023-05-20T09:00:26.526Z,29.34
2023-05-20T09:01:26.634Z,29.32
2023-05-20T09:02:26.674Z,29.35
2023-05-20T09:03:26.754Z,29.35
2023-05-20T09:04:26.757Z,29.29
2023-05-20T09:05:26.745Z,29.35
2023-05-20T09:06:26.753Z,29.39
2023-05-20T09:07:26.773Z,29.38
2023-05-20T09:08:26.787Z,29.39
2023-05-20T09:09:26.810Z,29.37
2023-05-20T09:10:26.817Z,29.33
2023-05-20T09:11:26.847Z,29.30
2023-05-20T09:12:26.852Z,29.27
2023-05-20T09:13:26.862Z,29.27
2023-05-20T09:14:26.884Z,29.30
2023-05-20T09:15:26.910Z,29.30
2023-05-20T09:16:26.981Z,29.25
2023-05-20T09:17:27.037Z,29.28
2023-05-20T09:18:27.077Z,29.24
2023-05-20T09:19:27.138Z,29.21
2023-05-20T09:20:27.140Z,29.23
2023-05-20T09:21:27.177Z,29.23
2023-05-20T09:22:27.206Z,29.20
2023-05-20T09:23:27.253Z,29.14
2023-05-20T09:24:27.305Z,29.16
2023-05-20T09:25:27.331Z,29.15
2023-05-20T09:26:27.357Z,29.18
2023-05-20T09:27:27.391Z,29.15
2023-05-20T09:28:27.433Z,29.10
2023-05-20T09:29:27.477Z,29.12
2023-05-20T09:30:27.495Z,29.11
2023-05-20T09:31:27.571Z,29.11
2023-05-20T09:32:27.617Z,29.08
2023-05-20T09:33:27.591Z,29.03
2023-05-20T09:34:27.598Z,29.07
2023-05-20T09:35:27.633Z,29.04
2023-05-20T09:36:27.642Z,29.05
2023-05-20T09:37:27.669Z,29.03
2023-05-20T09:38:27.691Z,29.04
2023-05-20T09:39:27.713Z,28.99
2023-05-20T09:40:27.714Z,28.98
2023-05-20T09:41:27.736Z,29.01
2023-05-20T09:42:27.759Z,29.01
2023-05-20T09:43:27.756Z,28.98
2023-05-20T09:44:27.794Z,28.97
2023-05-20T09:45:27.848Z,29.00
2023-05-20T09:46:27.979Z,28.93
2023-05-20T09:47:27.934Z,28.99
2023-05-20T09:48:27.984Z,28.96
2023-05-20T09:49:28.034Z,28.96
2023-05-20T09:50:28.048Z,28.90
2023-05-20T09:51:28.114Z,28.96
2023-05-20T09:52:28.156Z,28.92
2023-05-20T09:53:28.211Z,28.94
2023-05-20T09:54:28.284Z,28.96
2023-05-20T09:55:28.353Z,28.89
2023-05-20T09:56:28.423Z,28.91
2023-05-20T09:57:28.502Z,28.92
2023-05-20T09:58:28.601Z,28.92
2023-05-20T09:59:28.680Z,28.94
2023-05-20T10:00:28.779Z,28.92
2023-05-20T10:01:28.870Z,28.87
2023-05-20T10:02:28.954Z,28.97
2023-05-20T10:03:29.031Z,28.90
2023-05-20T10:04:29.054Z,28.91
2023-05-20T10:05:29.124Z,28.85
2023-05-20T10:06:29.198Z,28.88
2023-05-20T10:07:41.335Z,28.87
2023-05-20T10:08:30.310Z,28.90
2023-05-20T10:09:29.306Z,28.91
2023-05-20T10:10:29.308Z,28.89
2023-05-20T10:11:29.319Z,28.83
2023-05-20T10:12:29.333Z,28.86
2023-05-20T10:13:29.343Z,28.88
2023-05-20T10:14:29.345Z,28.86
2023-05-20T10:15:29.374Z,28.84
2023-05-20T10:16:29.367Z,28.85
2023-05-20T10:17:29.444Z,28.81
2023-05-20T10:18:29.492Z,28.84
2023-05-20T10:19:29.594Z,28.82
2023-05-20T10:20:29.551Z,28.82
2023-05-20T10:21:29.602Z,28.79
2023-05-20T10:22:29.656Z,28.81
2023-05-20T10:23:29.715Z,28.78
2023-05-20T10:24:29.771Z,28.80
2023-05-20T10:25:29.801Z,28.80
2023-05-20T10:26:29.849Z,28.78
2023-05-20T10:27:29.914Z,28.78
2023-05-20T10:28:29.954Z,28.80
2023-05-20T10:29:30.030Z,28.78
2023-05-20T10:30:30.056Z,28.79
2023-05-20T10:31:30.102Z,28.79
2023-05-20T10:32:30.237Z,28.79
2023-05-20T10:33:30.246Z,28.79
2023-05-20T10:34:30.234Z,28.73
2023-05-20T10:35:30.270Z,28.81
2023-05-20T10:36:30.312Z,28.72
2023-05-20T10:37:30.349Z,28.69
2023-05-20T10:38:30.385Z,28.72
2023-05-20T10:39:30.447Z,28.74
2023-05-20T10:40:30.481Z,28.74
2023-05-20T10:41:30.512Z,28.69
2023-05-20T10:42:30.541Z,28.75
2023-05-20T10:43:30.538Z,28.71
2023-05-20T10:44:30.549Z,28.75
2023-05-20T10:45:30.556Z,28.69
2023-05-20T10:46:38.008Z,28.72
2023-05-20T10:47:31.576Z,28.76
2023-05-20T10:48:30.623Z,28.70
2023-05-20T10:49:30.571Z,28.77
2023-05-20T10:50:30.581Z,28.74
2023-05-20T10:51:30.595Z,28.70
2023-05-20T10:52:30.597Z,28.65
2023-05-20T10:53:33.878Z,28.64
2023-05-20T10:54:30.613Z,28.65
2023-05-20T10:55:30.616Z,28.60
2023-05-20T10:56:30.608Z,28.56
2023-05-20T10:57:30.630Z,28.61
2023-05-20T10:58:30.636Z,28.62
2023-05-20T10:59:30.642Z,28.61
2023-05-20T11:00:30.648Z,28.59
2023-05-20T11:01:30.674Z,28.58
2023-05-20T11:02:30.743Z,28.56
2023-05-20T11:03:30.685Z,28.55
2023-05-20T11:04:30.666Z,28.58
2023-05-20T11:05:30.653Z,28.64
2023-05-20T11:06:30.657Z,28.58
2023-05-20T11:07:30.667Z,28.61
2023-05-20T11:08:30.663Z,28.57
2023-05-20T11:09:30.704Z,28.52
2023-05-20T11:10:30.677Z,28.55
2023-05-20T11:11:30.682Z,28.55
2023-05-20T11:12:30.692Z,28.54
2023-05-20T11:13:30.697Z,28.54
2023-05-20T11:14:30.706Z,28.53
2023-05-20T11:15:30.697Z,28.50
2023-05-20T11:16:30.713Z,28.52
2023-05-20T11:17:30.775Z,28.49
2023-05-20T11:18:30.713Z,28.52
2023-05-20T11:19:30.823Z,28.47
2023-05-20T11:20:30.716Z,28.52
2023-05-20T11:21:30.728Z,28.47
2023-05-20T11:22:30.743Z,28.49
2023-05-20T11:23:30.760Z,28.50
2023-05-20T11:24:30.760Z,28.46
2023-05-20T11:25:30.776Z,28.46
2023-05-20T11:26:30.765Z,28.49
2023-05-20T11:27:30.765Z,28.51
2023-05-20T11:28:30.782Z,28.48
2023-05-20T11:29:30.772Z,28.48
2023-05-20T11:30:30.786Z,28.51
2023-05-20T11:31:30.816Z,28.49
2023-05-20T11:32:30.921Z,28.50
2023-05-20T11:33:30.807Z,28.53
2023-05-20T11:34:31.928Z,28.58
2023-05-20T11:35:30.816Z,28.53
2023-05-20T11:36:30.832Z,28.56
2023-05-20T11:37:30.841Z,28.58
2023-05-20T11:38:30.839Z,28.60
2023-05-20T11:39:30.870Z,28.55
2023-05-20T11:40:35.882Z,28.55
2023-05-20T11:41:31.841Z,28.59
2023-05-20T11:42:30.841Z,28.62
2023-05-20T11:43:30.857Z,28.60
2023-05-20T11:44:30.863Z,28.63
2023-05-20T11:45:30.882Z,28.64
2023-05-20T11:46:30.950Z,28.65
2023-05-20T11:47:30.878Z,28.66
2023-05-20T11:48:30.870Z,28.66
2023-05-20T11:49:30.994Z,28.67
2023-05-20T11:50:30.878Z,28.64
2023-05-20T11:51:30.893Z,28.68
2023-05-20T11:52:30.910Z,28.73
2023-05-20T11:53:30.893Z,28.73
2023-05-20T11:54:30.900Z,28.70
2023-05-20T11:55:30.914Z,28.74
2023-05-20T11:56:30.900Z,28.75
2023-05-20T11:57:30.914Z,28.75
2023-05-20T11:58:30.932Z,28.81
2023-05-20T11:59:30.924Z,28.78
2023-05-20T12:00:36.213Z,28.77
2023-05-20T12:01:31.937Z,28.84
2023-05-20T12:02:30.942Z,28.75
2023-05-20T12:03:30.985Z,28.80
2023-05-20T12:04:30.988Z,28.77
2023-05-20T12:05:30.950Z,28.78
2023-05-20T12:06:30.956Z,28.79
2023-05-20T12:07:30.970Z,28.78
2023-05-20T12:08:30.961Z,28.74
2023-05-20T12:09:30.970Z,28.77
2023-05-20T12:10:30.986Z,28.82
2023-05-20T12:11:30.986Z,28.80
2023-05-20T12:12:30.984Z,28.83
2023-05-20T12:13:31.794Z,28.78
2023-05-20T12:14:30.997Z,28.80
2023-05-20T12:15:31.012Z,28.78
2023-05-20T12:16:31.098Z,28.77
2023-05-20T12:17:31.049Z,28.80
2023-05-20T12:18:31.016Z,28.83
2023-05-20T12:19:32.156Z,28.78
2023-05-20T12:20:31.018Z,28.78
2023-05-20T12:21:31.030Z,28.83
2023-05-20T12:22:31.028Z,28.80
2023-05-20T12:23:31.042Z,28.80
2023-05-20T12:24:31.078Z,28.77
2023-05-20T12:25:31.055Z,28.80
2023-05-20T12:26:31.051Z,28.83
2023-05-20T12:27:31.064Z,28.77
2023-05-20T12:28:31.066Z,28.76
2023-05-20T12:29:31.080Z,28.77
2023-05-20T12:30:31.089Z,28.79
2023-05-20T12:31:33.791Z,28.73
2023-05-20T12:32:31.115Z,28.73
2023-05-20T12:33:31.085Z,28.73
2023-05-20T12:34:31.089Z,28.73
2023-05-20T12:35:31.091Z,28.72
2023-05-20T12:36:31.093Z,28.71
2023-05-20T12:37:31.117Z,28.69
2023-05-20T12:38:31.104Z,28.66
2023-05-20T12:39:31.111Z,28.68
2023-05-20T12:40:31.120Z,28.65
2023-05-20T12:41:31.116Z,28.61
2023-05-20T12:42:31.112Z,28.67
2023-05-20T12:43:31.135Z,28.67
2023-05-20T12:44:31.135Z,28.65
2023-05-20T12:45:31.140Z,28.64
2023-05-20T12:46:31.194Z,28.67
2023-05-20T12:47:31.154Z,28.67
2023-05-20T12:48:31.166Z,28.64
2023-05-20T12:49:31.155Z,28.64
2023-05-20T12:50:31.139Z,28.62
2023-05-20T12:51:31.159Z,28.64
2023-05-20T12:52:31.145Z,28.67